メインページ
METAR-TAF:

METAR-TAF

空港 :

上海浦東, 中華人民共和国

上海浦東国際空港

緯度: 31-07N, 経度: 121-46E, 海抜: 4m

現時点の気象観測

当レポートは18分前の12:00(UTC)に作成
北東の風 8kt、から東/北東の間で変化する
気温 9°C
湿度 93%
気圧 1023 hPa
視程: 4500m
高度400ftの千切れ雲あり
高度3300ftの曇り
小雨, 靄

METAR: ZSPD 241200Z 04004MPS 010V070 4500 -RA BR BKN004 OVC033 09/08 Q1023 BECMG TL1350 BKN005 OVC040

時間: 20:18 (12:18 UTC)

予報

当レポートは2時間57分前の09:21(UTC)に作成
予報は24日の 12時(UTC)から 25日の 12時(UTC)まで有効
北/北東の風 10kt
視程: 3500m
高度1000ftの千切れ雲あり
小雨, 靄
24日の 21時(UTC)から 24日の 22時(UTC)まで徐々に
視程: 2800m
25日の 00時(UTC)から 25日の 01時(UTC)まで徐々に
視程: 6000m

TAF: ZSPD 240921Z 2412/2512 03005MPS 3500 -RA BR BKN010 TX11/2506Z TN06/2422Z BECMG 2421/2422 2800 BR BECMG 2500/2501 6000

4,000以上の空港の気象観測と天気予報(METAR報とTAF報)

利用可能な観測所は地図上に黄色い丸と赤い丸で示す。

丸の上にカーソルを重ねると観測所名を参照できる。

次にクリックすると気象観測と天気予報を参照できる。

マップの切り替え:黒色「×」印の緑ボタンをクリックして拡大、「-」印の緑ボタンをクリックして縮小、緑色の三角印をクリックして隣りの地図に切り替え


METAR-TAF: